sensor_id;sensor_type;location;lat;lon;timestamp;temperature;humidity
53520;DHT22;39397;53.204;5.778;2023-06-24T00:01:34;17.20;99.90
53520;DHT22;39397;53.204;5.778;2023-06-24T00:04:00;17.30;99.90
53520;DHT22;39397;53.204;5.778;2023-06-24T00:06:26;17.20;99.90
53520;DHT22;39397;53.204;5.778;2023-06-24T00:08:52;17.20;99.90
53520;DHT22;39397;53.204;5.778;2023-06-24T00:11:29;17.20;99.90
53520;DHT22;39397;53.204;5.778;2023-06-24T00:13:55;17.20;99.90
53520;DHT22;39397;53.204;5.778;2023-06-24T00:16:30;17.20;99.90
53520;DHT22;39397;53.204;5.778;2023-06-24T00:18:56;17.20;99.90
53520;DHT22;39397;53.204;5.778;2023-06-24T00:21:25;17.10;99.90
53520;DHT22;39397;53.204;5.778;2023-06-24T00:23:58;17.00;99.90
53520;DHT22;39397;53.204;5.778;2023-06-24T00:26:30;17.00;99.90
53520;DHT22;39397;53.204;5.778;2023-06-24T00:28:58;16.90;99.90
53520;DHT22;39397;53.204;5.778;2023-06-24T00:31:29;17.10;99.90
53520;DHT22;39397;53.204;5.778;2023-06-24T00:34:03;17.00;99.90
53520;DHT22;39397;53.204;5.778;2023-06-24T00:36:31;17.00;99.90
53520;DHT22;39397;53.204;5.778;2023-06-24T00:38:58;16.70;99.90
53520;DHT22;39397;53.204;5.778;2023-06-24T00:41:27;16.90;99.90
53520;DHT22;39397;53.204;5.778;2023-06-24T00:43:53;16.80;99.90
53520;DHT22;39397;53.204;5.778;2023-06-24T00:46:19;16.80;99.90
53520;DHT22;39397;53.204;5.778;2023-06-24T00:48:48;16.80;99.90
53520;DHT22;39397;53.204;5.778;2023-06-24T00:51:16;16.80;99.90
53520;DHT22;39397;53.204;5.778;2023-06-24T00:53:41;16.70;99.90
53520;DHT22;39397;53.204;5.778;2023-06-24T00:56:07;16.70;99.90
53520;DHT22;39397;53.204;5.778;2023-06-24T00:58:35;16.80;99.90
53520;DHT22;39397;53.204;5.778;2023-06-24T01:01:02;16.70;99.90
53520;DHT22;39397;53.204;5.778;2023-06-24T01:03:31;16.70;99.90
53520;DHT22;39397;53.204;5.778;2023-06-24T01:05:57;16.70;99.90
53520;DHT22;39397;53.204;5.778;2023-06-24T01:08:25;16.60;99.90
53520;DHT22;39397;53.204;5.778;2023-06-24T01:10:51;16.70;99.90
53520;DHT22;39397;53.204;5.778;2023-06-24T01:13:18;16.60;99.90
53520;DHT22;39397;53.204;5.778;2023-06-24T01:15:45;16.60;99.90
53520;DHT22;39397;53.204;5.778;2023-06-24T01:32:14;16.60;99.90
53520;DHT22;39397;53.204;5.778;2023-06-24T01:34:46;16.50;99.90
53520;DHT22;39397;53.204;5.778;2023-06-24T01:37:21;16.50;99.90
53520;DHT22;39397;53.204;5.778;2023-06-24T01:39:57;16.40;99.90
53520;DHT22;39397;53.204;5.778;2023-06-24T01:42:27;16.50;99.90
53520;DHT22;39397;53.204;5.778;2023-06-24T01:44:55;16.50;99.90
53520;DHT22;39397;53.204;5.778;2023-06-24T01:47:26;16.40;99.90
53520;DHT22;39397;53.204;5.778;2023-06-24T01:49:53;16.50;99.90
53520;DHT22;39397;53.204;5.778;2023-06-24T01:52:23;16.50;99.90
53520;DHT22;39397;53.204;5.778;2023-06-24T01:54:52;16.40;99.90
53520;DHT22;39397;53.204;5.778;2023-06-24T01:57:20;16.40;99.90
53520;DHT22;39397;53.204;5.778;2023-06-24T01:59:48;16.40;99.90
53520;DHT22;39397;53.204;5.778;2023-06-24T02:02:15;16.40;99.90
53520;DHT22;39397;53.204;5.778;2023-06-24T02:04:42;16.50;99.90
53520;DHT22;39397;53.204;5.778;2023-06-24T02:07:09;16.40;99.90
53520;DHT22;39397;53.204;5.778;2023-06-24T02:09:36;17.40;99.90
53520;DHT22;39397;53.204;5.778;2023-06-24T02:12:03;16.30;99.90
53520;DHT22;39397;53.204;5.778;2023-06-24T02:14:30;16.40;99.90
53520;DHT22;39397;53.204;5.778;2023-06-24T02:16:58;16.40;99.90
53520;DHT22;39397;53.204;5.778;2023-06-24T02:19:29;16.30;99.90
53520;DHT22;39397;53.204;5.778;2023-06-24T02:21:56;16.30;99.90
53520;DHT22;39397;53.204;5.778;2023-06-24T02:24:23;16.40;99.90
53520;DHT22;39397;53.204;5.778;2023-06-24T02:26:50;16.40;99.90
53520;DHT22;39397;53.204;5.778;2023-06-24T02:29:17;16.40;99.90
53520;DHT22;39397;53.204;5.778;2023-06-24T02:31:43;16.30;99.90
53520;DHT22;39397;53.204;5.778;2023-06-24T02:34:09;16.30;99.90
53520;DHT22;39397;53.204;5.778;2023-06-24T02:36:35;16.40;99.90
53520;DHT22;39397;53.204;5.778;2023-06-24T02:39:00;16.30;99.90
53520;DHT22;39397;53.204;5.778;2023-06-24T02:41:26;16.30;99.90
53520;DHT22;39397;53.204;5.778;2023-06-24T02:43:52;16.20;99.90
53520;DHT22;39397;53.204;5.778;2023-06-24T02:46:18;16.30;99.90
53520;DHT22;39397;53.204;5.778;2023-06-24T02:48:45;16.30;99.90
53520;DHT22;39397;53.204;5.778;2023-06-24T02:51:11;16.20;99.90
53520;DHT22;39397;53.204;5.778;2023-06-24T02:53:38;16.10;99.90
53520;DHT22;39397;53.204;5.778;2023-06-24T02:56:06;16.20;99.90
53520;DHT22;39397;53.204;5.778;2023-06-24T02:58:33;16.20;99.90
53520;DHT22;39397;53.204;5.778;2023-06-24T03:01:03;16.20;99.90
53520;DHT22;39397;53.204;5.778;2023-06-24T03:03:29;16.20;99.90
53520;DHT22;39397;53.204;5.778;2023-06-24T03:05:56;16.10;99.90
53520;DHT22;39397;53.204;5.778;2023-06-24T03:08:23;16.20;99.90
53520;DHT22;39397;53.204;5.778;2023-06-24T03:10:55;16.20;99.90
53520;DHT22;39397;53.204;5.778;2023-06-24T03:13:21;16.20;99.90
53520;DHT22;39397;53.204;5.778;2023-06-24T03:15:47;16.20;99.90
53520;DHT22;39397;53.204;5.778;2023-06-24T03:18:13;16.10;99.90
53520;DHT22;39397;53.204;5.778;2023-06-24T03:20:38;16.10;99.90
53520;DHT22;39397;53.204;5.778;2023-06-24T03:23:07;16.20;99.90
53520;DHT22;39397;53.204;5.778;2023-06-24T03:25:34;16.20;99.90
53520;DHT22;39397;53.204;5.778;2023-06-24T03:28:00;16.20;99.90
53520;DHT22;39397;53.204;5.778;2023-06-24T03:30:27;16.20;99.90
53520;DHT22;39397;53.204;5.778;2023-06-24T03:32:52;16.20;99.90
53520;DHT22;39397;53.204;5.778;2023-06-24T03:35:18;16.20;99.90
53520;DHT22;39397;53.204;5.778;2023-06-24T03:37:44;16.20;99.90
53520;DHT22;39397;53.204;5.778;2023-06-24T03:40:10;16.20;99.90
53520;DHT22;39397;53.204;5.778;2023-06-24T03:42:36;16.30;99.90
53520;DHT22;39397;53.204;5.778;2023-06-24T03:45:03;16.30;99.90
53520;DHT22;39397;53.204;5.778;2023-06-24T03:47:29;16.40;99.90
53520;DHT22;39397;53.204;5.778;2023-06-24T03:49:54;16.40;99.90
53520;DHT22;39397;53.204;5.778;2023-06-24T03:52:20;16.40;99.90
53520;DHT22;39397;53.204;5.778;2023-06-24T03:54:46;16.50;99.90
53520;DHT22;39397;53.204;5.778;2023-06-24T03:57:12;16.50;99.90
53520;DHT22;39397;53.204;5.778;2023-06-24T03:59:38;16.60;99.90
53520;DHT22;39397;53.204;5.778;2023-06-24T04:02:05;16.70;99.90
53520;DHT22;39397;53.204;5.778;2023-06-24T04:04:36;16.70;99.90
53520;DHT22;39397;53.204;5.778;2023-06-24T04:07:02;16.80;99.90
53520;DHT22;39397;53.204;5.778;2023-06-24T04:09:33;16.80;99.90
53520;DHT22;39397;53.204;5.778;2023-06-24T04:11:59;16.80;99.90
53520;DHT22;39397;53.204;5.778;2023-06-24T04:14:24;16.90;99.90
53520;DHT22;39397;53.204;5.778;2023-06-24T04:16:50;17.00;99.90
53520;DHT22;39397;53.204;5.778;2023-06-24T04:19:16;17.00;99.90
53520;DHT22;39397;53.204;5.778;2023-06-24T04:21:42;17.10;99.90
53520;DHT22;39397;53.204;5.778;2023-06-24T04:24:07;17.10;99.90
53520;DHT22;39397;53.204;5.778;2023-06-24T04:26:33;17.30;99.90
53520;DHT22;39397;53.204;5.778;2023-06-24T04:28:59;17.20;99.90
53520;DHT22;39397;53.204;5.778;2023-06-24T04:31:24;17.20;99.90
53520;DHT22;39397;53.204;5.778;2023-06-24T04:33:51;17.30;99.90
53520;DHT22;39397;53.204;5.778;2023-06-24T04:36:17;17.50;99.90
53520;DHT22;39397;53.204;5.778;2023-06-24T04:38:42;17.40;99.90
53520;DHT22;39397;53.204;5.778;2023-06-24T04:41:09;17.40;99.90
53520;DHT22;39397;53.204;5.778;2023-06-24T04:43:35;17.50;99.90
53520;DHT22;39397;53.204;5.778;2023-06-24T04:46:01;17.50;99.90
53520;DHT22;39397;53.204;5.778;2023-06-24T04:48:27;17.60;99.90
53520;DHT22;39397;53.204;5.778;2023-06-24T04:50:52;17.70;99.90
53520;DHT22;39397;53.204;5.778;2023-06-24T04:53:23;17.60;99.90
53520;DHT22;39397;53.204;5.778;2023-06-24T04:55:49;17.70;99.90
53520;DHT22;39397;53.204;5.778;2023-06-24T04:58:14;17.70;99.90
53520;DHT22;39397;53.204;5.778;2023-06-24T05:00:40;18.00;99.90
53520;DHT22;39397;53.204;5.778;2023-06-24T05:03:06;18.10;99.90
53520;DHT22;39397;53.204;5.778;2023-06-24T05:05:32;18.20;99.90
53520;DHT22;39397;53.204;5.778;2023-06-24T05:07:57;18.30;99.90
53520;DHT22;39397;53.204;5.778;2023-06-24T05:10:23;18.40;99.90
53520;DHT22;39397;53.204;5.778;2023-06-24T05:12:49;18.60;99.90
53520;DHT22;39397;53.204;5.778;2023-06-24T05:15:14;18.80;99.90
53520;DHT22;39397;53.204;5.778;2023-06-24T05:17:42;19.00;99.90
53520;DHT22;39397;53.204;5.778;2023-06-24T05:20:08;19.20;99.90
53520;DHT22;39397;53.204;5.778;2023-06-24T05:22:34;19.40;99.90
53520;DHT22;39397;53.204;5.778;2023-06-24T05:25:00;19.60;99.90
53520;DHT22;39397;53.204;5.778;2023-06-24T05:27:26;19.60;99.90
53520;DHT22;39397;53.204;5.778;2023-06-24T05:29:51;19.80;99.90
53520;DHT22;39397;53.204;5.778;2023-06-24T05:32:17;19.70;99.90
53520;DHT22;39397;53.204;5.778;2023-06-24T05:34:45;20.10;99.90
53520;DHT22;39397;53.204;5.778;2023-06-24T05:37:11;20.30;99.90
53520;DHT22;39397;53.204;5.778;2023-06-24T05:39:37;20.50;99.90
53520;DHT22;39397;53.204;5.778;2023-06-24T05:42:03;20.60;99.90
53520;DHT22;39397;53.204;5.778;2023-06-24T05:44:28;20.70;99.90
53520;DHT22;39397;53.204;5.778;2023-06-24T05:46:54;20.70;99.90
53520;DHT22;39397;53.204;5.778;2023-06-24T05:49:20;20.70;99.90
53520;DHT22;39397;53.204;5.778;2023-06-24T05:51:45;20.80;99.90
53520;DHT22;39397;53.204;5.778;2023-06-24T05:54:11;21.00;99.90
53520;DHT22;39397;53.204;5.778;2023-06-24T05:56:37;20.90;99.90
53520;DHT22;39397;53.204;5.778;2023-06-24T05:59:02;20.80;99.90
53520;DHT22;39397;53.204;5.778;2023-06-24T06:01:28;20.90;99.90
53520;DHT22;39397;53.204;5.778;2023-06-24T06:03:54;21.00;99.90
53520;DHT22;39397;53.204;5.778;2023-06-24T06:06:20;21.10;99.90
53520;DHT22;39397;53.204;5.778;2023-06-24T06:08:47;21.10;99.90
53520;DHT22;39397;53.204;5.778;2023-06-24T06:11:13;21.20;99.90
53520;DHT22;39397;53.204;5.778;2023-06-24T06:13:39;21.40;99.90
53520;DHT22;39397;53.204;5.778;2023-06-24T06:16:04;21.50;99.90
53520;DHT22;39397;53.204;5.778;2023-06-24T06:18:30;21.60;99.90
53520;DHT22;39397;53.204;5.778;2023-06-24T06:20:56;21.70;99.90
53520;DHT22;39397;53.204;5.778;2023-06-24T06:23:21;21.80;99.90
53520;DHT22;39397;53.204;5.778;2023-06-24T06:25:47;21.90;99.90
53520;DHT22;39397;53.204;5.778;2023-06-24T06:28:13;21.90;99.90
53520;DHT22;39397;53.204;5.778;2023-06-24T06:30:39;21.90;99.90
53520;DHT22;39397;53.204;5.778;2023-06-24T06:33:07;22.00;99.90
53520;DHT22;39397;53.204;5.778;2023-06-24T06:35:33;23.20;99.90
53520;DHT22;39397;53.204;5.778;2023-06-24T06:37:59;22.20;99.90
53520;DHT22;39397;53.204;5.778;2023-06-24T06:40:25;22.10;99.90
53520;DHT22;39397;53.204;5.778;2023-06-24T06:42:54;22.30;99.90
53520;DHT22;39397;53.204;5.778;2023-06-24T06:45:20;22.30;99.90
53520;DHT22;39397;53.204;5.778;2023-06-24T06:47:46;22.40;99.90
53520;DHT22;39397;53.204;5.778;2023-06-24T06:50:11;22.50;99.90
53520;DHT22;39397;53.204;5.778;2023-06-24T06:52:37;22.40;99.90
53520;DHT22;39397;53.204;5.778;2023-06-24T06:55:04;22.50;99.90
53520;DHT22;39397;53.204;5.778;2023-06-24T06:57:30;22.50;99.90
53520;DHT22;39397;53.204;5.778;2023-06-24T06:59:56;22.50;99.90
53520;DHT22;39397;53.204;5.778;2023-06-24T07:02:22;22.70;99.90
53520;DHT22;39397;53.204;5.778;2023-06-24T07:04:47;22.80;99.90
53520;DHT22;39397;53.204;5.778;2023-06-24T07:07:14;22.80;99.90
53520;DHT22;39397;53.204;5.778;2023-06-24T07:09:40;23.00;99.90
53520;DHT22;39397;53.204;5.778;2023-06-24T07:12:06;22.80;99.90
53520;DHT22;39397;53.204;5.778;2023-06-24T07:14:32;23.00;99.90
53520;DHT22;39397;53.204;5.778;2023-06-24T07:16:58;22.90;99.90
53520;DHT22;39397;53.204;5.778;2023-06-24T07:19:24;22.80;99.90
53520;DHT22;39397;53.204;5.778;2023-06-24T07:21:49;22.90;99.90
53520;DHT22;39397;53.204;5.778;2023-06-24T07:24:15;23.00;99.90
53520;DHT22;39397;53.204;5.778;2023-06-24T07:26:41;23.00;99.90
53520;DHT22;39397;53.204;5.778;2023-06-24T07:29:07;23.10;99.90
53520;DHT22;39397;53.204;5.778;2023-06-24T07:31:33;23.20;99.90
53520;DHT22;39397;53.204;5.778;2023-06-24T07:33:59;23.30;99.90
53520;DHT22;39397;53.204;5.778;2023-06-24T07:36:25;23.30;99.90
53520;DHT22;39397;53.204;5.778;2023-06-24T07:38:51;23.50;99.90
53520;DHT22;39397;53.204;5.778;2023-06-24T07:41:16;23.60;99.90
53520;DHT22;39397;53.204;5.778;2023-06-24T07:43:42;23.80;99.90
53520;DHT22;39397;53.204;5.778;2023-06-24T07:46:08;24.20;99.90
53520;DHT22;39397;53.204;5.778;2023-06-24T07:48:33;24.00;99.90
53520;DHT22;39397;53.204;5.778;2023-06-24T07:50:59;24.10;99.90
53520;DHT22;39397;53.204;5.778;2023-06-24T07:53:25;24.30;99.90
53520;DHT22;39397;53.204;5.778;2023-06-24T07:55:50;24.10;99.90
53520;DHT22;39397;53.204;5.778;2023-06-24T07:58:16;24.40;99.90
53520;DHT22;39397;53.204;5.778;2023-06-24T08:00:44;24.40;99.90
53520;DHT22;39397;53.204;5.778;2023-06-24T08:03:11;24.60;99.90
53520;DHT22;39397;53.204;5.778;2023-06-24T08:05:37;24.80;99.90
53520;DHT22;39397;53.204;5.778;2023-06-24T08:08:05;24.80;99.90
53520;DHT22;39397;53.204;5.778;2023-06-24T08:10:30;24.90;99.90
53520;DHT22;39397;53.204;5.778;2023-06-24T08:12:56;24.90;99.90
53520;DHT22;39397;53.204;5.778;2023-06-24T08:15:22;24.90;99.80
53520;DHT22;39397;53.204;5.778;2023-06-24T08:17:54;24.80;99.60
53520;DHT22;39397;53.204;5.778;2023-06-24T08:20:21;24.80;99.50
53520;DHT22;39397;53.204;5.778;2023-06-24T08:22:47;24.80;99.40
53520;DHT22;39397;53.204;5.778;2023-06-24T08:25:12;24.80;99.40
53520;DHT22;39397;53.204;5.778;2023-06-24T08:27:38;24.80;99.40
53520;DHT22;39397;53.204;5.778;2023-06-24T08:30:07;24.70;99.40
53520;DHT22;39397;53.204;5.778;2023-06-24T08:32:33;24.60;99.60
53520;DHT22;39397;53.204;5.778;2023-06-24T08:34:59;24.70;99.60
53520;DHT22;39397;53.204;5.778;2023-06-24T08:37:24;24.70;99.40
53520;DHT22;39397;53.204;5.778;2023-06-24T08:39:50;24.70;99.30
53520;DHT22;39397;53.204;5.778;2023-06-24T08:42:16;24.60;99.30
53520;DHT22;39397;53.204;5.778;2023-06-24T08:44:42;24.50;99.20
53520;DHT22;39397;53.204;5.778;2023-06-24T08:47:08;24.60;99.50
53520;DHT22;39397;53.204;5.778;2023-06-24T08:49:40;24.50;99.10
53520;DHT22;39397;53.204;5.778;2023-06-24T08:52:12;24.60;99.20
53520;DHT22;39397;53.204;5.778;2023-06-24T08:54:40;24.70;99.30
53520;DHT22;39397;53.204;5.778;2023-06-24T08:57:06;24.90;99.30
53520;DHT22;39397;53.204;5.778;2023-06-24T08:59:34;25.00;98.90
53520;DHT22;39397;53.204;5.778;2023-06-24T09:02:01;25.10;98.60
53520;DHT22;39397;53.204;5.778;2023-06-24T09:04:27;25.20;98.50
53520;DHT22;39397;53.204;5.778;2023-06-24T09:06:52;25.10;98.10
53520;DHT22;39397;53.204;5.778;2023-06-24T09:09:22;25.30;97.80
53520;DHT22;39397;53.204;5.778;2023-06-24T09:11:59;25.30;97.70
53520;DHT22;39397;53.204;5.778;2023-06-24T09:14:25;25.50;97.00
53520;DHT22;39397;53.204;5.778;2023-06-24T09:19:22;25.70;96.80
53520;DHT22;39397;53.204;5.778;2023-06-24T09:21:48;25.80;96.60
53520;DHT22;39397;53.204;5.778;2023-06-24T09:24:14;26.00;96.70
53520;DHT22;39397;53.204;5.778;2023-06-24T09:26:42;26.00;96.60
53520;DHT22;39397;53.204;5.778;2023-06-24T09:29:08;26.00;96.70
53520;DHT22;39397;53.204;5.778;2023-06-24T09:31:34;26.30;96.80
53520;DHT22;39397;53.204;5.778;2023-06-24T09:34:00;26.30;96.80
53520;DHT22;39397;53.204;5.778;2023-06-24T09:36:26;26.30;96.40
53520;DHT22;39397;53.204;5.778;2023-06-24T09:38:52;26.30;95.90
53520;DHT22;39397;53.204;5.778;2023-06-24T09:41:18;26.30;95.70
53520;DHT22;39397;53.204;5.778;2023-06-24T09:43:43;26.30;95.50
53520;DHT22;39397;53.204;5.778;2023-06-24T09:46:10;26.50;95.40
53520;DHT22;39397;53.204;5.778;2023-06-24T09:48:36;26.60;95.10
53520;DHT22;39397;53.204;5.778;2023-06-24T09:51:03;26.70;95.10
53520;DHT22;39397;53.204;5.778;2023-06-24T09:53:34;26.50;94.80
53520;DHT22;39397;53.204;5.778;2023-06-24T09:56:02;26.60;94.50
53520;DHT22;39397;53.204;5.778;2023-06-24T09:58:32;26.70;94.30
53520;DHT22;39397;53.204;5.778;2023-06-24T10:01:03;26.70;94.20
53520;DHT22;39397;53.204;5.778;2023-06-24T10:03:32;26.70;93.30
53520;DHT22;39397;53.204;5.778;2023-06-24T10:05:58;26.70;92.60
53520;DHT22;39397;53.204;5.778;2023-06-24T10:08:24;26.70;92.40
53520;DHT22;39397;53.204;5.778;2023-06-24T10:10:50;26.70;92.00
53520;DHT22;39397;53.204;5.778;2023-06-24T10:13:16;26.70;92.50
53520;DHT22;39397;53.204;5.778;2023-06-24T10:15:42;26.80;92.40
53520;DHT22;39397;53.204;5.778;2023-06-24T10:20:59;27.00;91.40
53520;DHT22;39397;53.204;5.778;2023-06-24T10:26:29;26.80;90.50
53520;DHT22;39397;53.204;5.778;2023-06-24T10:36:55;26.80;93.20
53520;DHT22;39397;53.204;5.778;2023-06-24T10:45:17;26.80;93.40
53520;DHT22;39397;53.204;5.778;2023-06-24T10:47:50;26.90;92.50
53520;DHT22;39397;53.204;5.778;2023-06-24T10:50:22;26.70;92.00
53520;DHT22;39397;53.204;5.778;2023-06-24T10:52:52;26.80;92.30
53520;DHT22;39397;53.204;5.778;2023-06-24T10:55:25;26.80;92.30
53520;DHT22;39397;53.204;5.778;2023-06-24T10:57:54;26.70;92.10
53520;DHT22;39397;53.204;5.778;2023-06-24T11:00:21;26.80;91.60
53520;DHT22;39397;53.204;5.778;2023-06-24T11:02:48;27.00;91.90
53520;DHT22;39397;53.204;5.778;2023-06-24T11:05:14;26.90;91.30
53520;DHT22;39397;53.204;5.778;2023-06-24T11:07:40;26.90;91.00
53520;DHT22;39397;53.204;5.778;2023-06-24T11:10:09;26.90;91.00
53520;DHT22;39397;53.204;5.778;2023-06-24T11:12:36;27.00;91.00
53520;DHT22;39397;53.204;5.778;2023-06-24T11:15:04;27.00;91.40
53520;DHT22;39397;53.204;5.778;2023-06-24T11:17:30;26.90;91.60
53520;DHT22;39397;53.204;5.778;2023-06-24T11:19:58;26.90;91.50
53520;DHT22;39397;53.204;5.778;2023-06-24T11:22:25;26.70;91.20
53520;DHT22;39397;53.204;5.778;2023-06-24T11:24:51;26.70;91.30
53520;DHT22;39397;53.204;5.778;2023-06-24T11:27:26;26.80;91.40
53520;DHT22;39397;53.204;5.778;2023-06-24T11:29:54;26.90;91.00
53520;DHT22;39397;53.204;5.778;2023-06-24T11:32:20;26.80;91.10
53520;DHT22;39397;53.204;5.778;2023-06-24T11:34:47;26.90;91.00
53520;DHT22;39397;53.204;5.778;2023-06-24T11:37:15;26.90;90.70
53520;DHT22;39397;53.204;5.778;2023-06-24T11:39:41;26.90;91.10
53520;DHT22;39397;53.204;5.778;2023-06-24T11:42:07;27.10;91.30
53520;DHT22;39397;53.204;5.778;2023-06-24T11:44:33;26.90;91.10
53520;DHT22;39397;53.204;5.778;2023-06-24T11:47:09;26.90;91.00
53520;DHT22;39397;53.204;5.778;2023-06-24T11:49:52;27.10;90.70
53520;DHT22;39397;53.204;5.778;2023-06-24T11:52:18;26.90;88.70
53520;DHT22;39397;53.204;5.778;2023-06-24T11:54:44;26.80;90.30
53520;DHT22;39397;53.204;5.778;2023-06-24T11:57:11;26.90;90.20
53520;DHT22;39397;53.204;5.778;2023-06-24T11:59:38;27.00;90.10
53520;DHT22;39397;53.204;5.778;2023-06-24T12:02:04;27.30;90.00
53520;DHT22;39397;53.204;5.778;2023-06-24T12:04:33;27.10;90.00
53520;DHT22;39397;53.204;5.778;2023-06-24T12:07:02;27.00;89.80
53520;DHT22;39397;53.204;5.778;2023-06-24T12:09:28;26.80;89.40
53520;DHT22;39397;53.204;5.778;2023-06-24T12:11:54;27.00;89.60
53520;DHT22;39397;53.204;5.778;2023-06-24T12:14:20;27.10;89.80
53520;DHT22;39397;53.204;5.778;2023-06-24T12:16:46;27.10;89.70
53520;DHT22;39397;53.204;5.778;2023-06-24T12:19:11;27.20;89.40
53520;DHT22;39397;53.204;5.778;2023-06-24T12:21:37;27.20;89.20
53520;DHT22;39397;53.204;5.778;2023-06-24T12:24:04;27.30;89.30
53520;DHT22;39397;53.204;5.778;2023-06-24T12:26:31;27.30;89.00
53520;DHT22;39397;53.204;5.778;2023-06-24T12:28:57;27.30;89.00
53520;DHT22;39397;53.204;5.778;2023-06-24T12:31:24;27.20;88.30
53520;DHT22;39397;53.204;5.778;2023-06-24T12:33:51;27.30;88.20
53520;DHT22;39397;53.204;5.778;2023-06-24T12:36:18;27.30;88.70
53520;DHT22;39397;53.204;5.778;2023-06-24T12:38:44;27.40;88.30
53520;DHT22;39397;53.204;5.778;2023-06-24T12:41:09;27.30;88.40
53520;DHT22;39397;53.204;5.778;2023-06-24T12:43:35;27.50;88.70
53520;DHT22;39397;53.204;5.778;2023-06-24T12:46:01;27.50;88.20
53520;DHT22;39397;53.204;5.778;2023-06-24T12:48:26;27.50;88.10
53520;DHT22;39397;53.204;5.778;2023-06-24T12:50:52;27.60;88.60
53520;DHT22;39397;53.204;5.778;2023-06-24T12:53:21;27.60;86.30
53520;DHT22;39397;53.204;5.778;2023-06-24T12:55:47;27.60;87.00
53520;DHT22;39397;53.204;5.778;2023-06-24T12:58:19;27.60;87.00
53520;DHT22;39397;53.204;5.778;2023-06-24T13:00:45;27.70;87.20
53520;DHT22;39397;53.204;5.778;2023-06-24T13:03:10;27.60;87.30
53520;DHT22;39397;53.204;5.778;2023-06-24T13:05:36;27.70;87.50
53520;DHT22;39397;53.204;5.778;2023-06-24T13:08:02;27.60;87.10
53520;DHT22;39397;53.204;5.778;2023-06-24T13:10:28;27.60;87.30
53520;DHT22;39397;53.204;5.778;2023-06-24T13:12:53;27.60;87.60
53520;DHT22;39397;53.204;5.778;2023-06-24T13:15:19;27.60;88.20
53520;DHT22;39397;53.204;5.778;2023-06-24T13:17:45;27.50;88.70
53520;DHT22;39397;53.204;5.778;2023-06-24T13:20:11;27.60;87.80
53520;DHT22;39397;53.204;5.778;2023-06-24T13:22:37;27.60;87.80
53520;DHT22;39397;53.204;5.778;2023-06-24T13:25:03;26.50;87.20
53520;DHT22;39397;53.204;5.778;2023-06-24T13:27:28;27.60;87.40
53520;DHT22;39397;53.204;5.778;2023-06-24T13:29:54;27.80;87.80
53520;DHT22;39397;53.204;5.778;2023-06-24T13:32:20;27.70;87.20
53520;DHT22;39397;53.204;5.778;2023-06-24T13:34:45;27.60;86.90
53520;DHT22;39397;53.204;5.778;2023-06-24T13:37:12;27.60;86.70
53520;DHT22;39397;53.204;5.778;2023-06-24T13:39:38;27.50;87.20
53520;DHT22;39397;53.204;5.778;2023-06-24T13:42:04;27.50;86.70
53520;DHT22;39397;53.204;5.778;2023-06-24T13:44:29;27.50;86.30
53520;DHT22;39397;53.204;5.778;2023-06-24T13:46:55;27.30;86.40
53520;DHT22;39397;53.204;5.778;2023-06-24T13:49:23;27.40;85.40
53520;DHT22;39397;53.204;5.778;2023-06-24T13:51:49;27.20;83.90
53520;DHT22;39397;53.204;5.778;2023-06-24T13:54:15;27.20;86.10
53520;DHT22;39397;53.204;5.778;2023-06-24T13:56:41;27.50;85.80
53520;DHT22;39397;53.204;5.778;2023-06-24T13:59:06;27.60;85.30
53520;DHT22;39397;53.204;5.778;2023-06-24T14:01:32;27.70;84.40
53520;DHT22;39397;53.204;5.778;2023-06-24T14:03:58;27.70;84.60
53520;DHT22;39397;53.204;5.778;2023-06-24T14:06:24;27.70;84.80
53520;DHT22;39397;53.204;5.778;2023-06-24T14:08:51;27.80;84.80
53520;DHT22;39397;53.204;5.778;2023-06-24T14:11:17;28.00;84.30
53520;DHT22;39397;53.204;5.778;2023-06-24T14:13:43;28.00;84.30
53520;DHT22;39397;53.204;5.778;2023-06-24T14:16:09;28.20;84.50
53520;DHT22;39397;53.204;5.778;2023-06-24T14:18:36;28.40;84.50
53520;DHT22;39397;53.204;5.778;2023-06-24T14:21:06;28.50;84.20
53520;DHT22;39397;53.204;5.778;2023-06-24T14:23:32;28.40;83.90
53520;DHT22;39397;53.204;5.778;2023-06-24T14:25:58;28.50;83.20
53520;DHT22;39397;53.204;5.778;2023-06-24T14:28:27;28.70;81.90
53520;DHT22;39397;53.204;5.778;2023-06-24T14:30:53;28.90;82.70
53520;DHT22;39397;53.204;5.778;2023-06-24T14:33:18;29.10;81.90
53520;DHT22;39397;53.204;5.778;2023-06-24T14:35:44;29.20;80.80
53520;DHT22;39397;53.204;5.778;2023-06-24T14:38:10;29.30;80.00
53520;DHT22;39397;53.204;5.778;2023-06-24T14:40:36;29.30;80.80
53520;DHT22;39397;53.204;5.778;2023-06-24T14:43:01;29.70;79.70
53520;DHT22;39397;53.204;5.778;2023-06-24T14:45:27;29.90;79.00
53520;DHT22;39397;53.204;5.778;2023-06-24T14:47:53;29.80;79.10
53520;DHT22;39397;53.204;5.778;2023-06-24T14:50:19;30.20;79.00
53520;DHT22;39397;53.204;5.778;2023-06-24T14:52:45;30.30;78.10
53520;DHT22;39397;53.204;5.778;2023-06-24T14:55:10;30.60;77.90
53520;DHT22;39397;53.204;5.778;2023-06-24T14:57:36;30.60;77.80
53520;DHT22;39397;53.204;5.778;2023-06-24T15:00:09;30.70;77.30
53520;DHT22;39397;53.204;5.778;2023-06-24T15:02:35;30.70;77.10
53520;DHT22;39397;53.204;5.778;2023-06-24T15:05:01;30.80;78.10
53520;DHT22;39397;53.204;5.778;2023-06-24T15:07:27;30.70;77.70
53520;DHT22;39397;53.204;5.778;2023-06-24T15:09:53;30.70;77.70
53520;DHT22;39397;53.204;5.778;2023-06-24T15:12:18;30.90;76.80
53520;DHT22;39397;53.204;5.778;2023-06-24T15:14:44;30.70;76.60
53520;DHT22;39397;53.204;5.778;2023-06-24T15:17:11;30.60;76.20
53520;DHT22;39397;53.204;5.778;2023-06-24T15:19:37;30.50;76.30
53520;DHT22;39397;53.204;5.778;2023-06-24T15:22:03;30.70;76.50
53520;DHT22;39397;53.204;5.778;2023-06-24T15:24:29;30.50;76.10
53520;DHT22;39397;53.204;5.778;2023-06-24T15:26:56;30.30;75.60
53520;DHT22;39397;53.204;5.778;2023-06-24T15:29:23;30.60;75.50
53520;DHT22;39397;53.204;5.778;2023-06-24T15:31:48;30.70;75.80
53520;DHT22;39397;53.204;5.778;2023-06-24T15:34:14;30.80;75.20
53520;DHT22;39397;53.204;5.778;2023-06-24T15:36:40;30.90;74.90
53520;DHT22;39397;53.204;5.778;2023-06-24T15:39:06;31.10;74.60
53520;DHT22;39397;53.204;5.778;2023-06-24T15:41:32;31.10;74.10
53520;DHT22;39397;53.204;5.778;2023-06-24T15:43:57;31.10;73.80
53520;DHT22;39397;53.204;5.778;2023-06-24T15:46:23;31.00;73.30
53520;DHT22;39397;53.204;5.778;2023-06-24T15:48:49;31.30;72.80
53520;DHT22;39397;53.204;5.778;2023-06-24T15:51:15;31.20;71.90
53520;DHT22;39397;53.204;5.778;2023-06-24T15:53:41;31.00;71.90
53520;DHT22;39397;53.204;5.778;2023-06-24T15:56:06;30.80;71.60
53520;DHT22;39397;53.204;5.778;2023-06-24T15:58:32;31.10;72.30
53520;DHT22;39397;53.204;5.778;2023-06-24T16:00:58;30.80;71.50
53520;DHT22;39397;53.204;5.778;2023-06-24T16:03:23;30.80;71.10